createdAt,value
2019-04-04T00:01:49.984Z,100850.77
2019-04-04T00:04:21.783Z,100851.36
2019-04-04T00:06:51.383Z,100849.41
2019-04-04T00:09:21.052Z,100840.62
2019-04-04T00:11:51.050Z,100838.16
2019-04-04T00:14:21.690Z,100847.13
2019-04-04T00:16:51.707Z,100838.75
2019-04-04T00:19:21.546Z,100840.61
2019-04-04T00:21:51.303Z,100828.78
2019-04-04T00:24:21.192Z,100830.97
2019-04-04T00:26:50.961Z,100828.88
2019-04-04T00:29:20.724Z,100828.25
2019-04-04T00:31:50.525Z,100825.70
2019-04-04T00:34:20.296Z,100820.88
2019-04-04T00:36:50.047Z,100825.95
2019-04-04T00:39:19.879Z,100824.09
2019-04-04T00:41:49.653Z,100825.95
2019-04-04T00:44:22.709Z,100820.92
2019-04-04T00:46:50.912Z,100817.25
2019-04-04T00:49:20.670Z,100817.39
2019-04-04T00:51:50.435Z,100811.56
2019-04-04T00:54:20.735Z,100811.56
2019-04-04T00:56:51.666Z,100807.81
2019-04-04T00:59:23.031Z,100813.86
2019-04-04T01:01:53.001Z,100812.30
2019-04-04T01:04:24.422Z,100811.91
2019-04-04T01:06:54.198Z,100810.20
2019-04-04T01:09:24.038Z,100810.34
2019-04-04T01:11:53.800Z,100805.31
2019-04-04T01:14:23.563Z,100804.48
2019-04-04T01:16:53.376Z,100802.02
2019-04-04T01:19:23.228Z,100800.51
2019-04-04T01:21:53.884Z,100797.30
2019-04-04T01:24:23.737Z,100790.95
2019-04-04T01:26:53.497Z,100791.92
2019-04-04T01:29:23.260Z,100786.59
2019-04-04T01:31:53.169Z,100783.80
2019-04-04T01:34:22.918Z,100779.00
2019-04-04T01:36:56.163Z,100776.66
2019-04-04T01:39:24.222Z,100777.93
2019-04-04T01:41:53.970Z,100775.39
2019-04-04T01:44:23.735Z,100773.43
2019-04-04T01:46:53.552Z,100770.20
2019-04-04T01:49:23.304Z,100764.43
2019-04-04T01:51:54.884Z,100768.02
2019-04-04T01:54:24.611Z,100762.94
2019-04-04T01:56:54.365Z,100765.01
2019-04-04T01:59:24.198Z,100767.11
2019-04-04T02:01:54.090Z,100771.19
2019-04-04T02:04:24.879Z,100770.36
2019-04-04T02:06:55.189Z,100774.61
2019-04-04T02:09:24.992Z,100771.27
2019-04-04T02:12:07.975Z,100773.34
2019-04-04T02:14:42.763Z,100777.92
2019-04-04T02:17:23.403Z,100777.84
2019-04-04T02:19:55.587Z,100775.25
2019-04-04T02:22:25.018Z,100771.19
2019-04-04T02:24:54.775Z,100767.52
2019-04-04T02:27:29.001Z,100770.45
2019-04-04T02:29:58.760Z,100770.05
2019-04-04T02:32:29.593Z,100767.52
2019-04-04T02:35:09.996Z,100768.40
2019-04-04T02:37:38.694Z,100767.57
2019-04-04T02:40:09.967Z,100761.30
2019-04-04T02:42:40.032Z,100764.12
2019-04-04T02:45:09.884Z,100764.61
2019-04-04T02:47:51.238Z,100763.56
2019-04-04T02:50:20.199Z,100757.31
2019-04-04T02:52:49.965Z,100757.79
2019-04-04T02:55:21.342Z,100758.67
2019-04-04T02:57:56.487Z,100754.86
2019-04-04T03:00:27.618Z,100749.48
2019-04-04T03:03:24.244Z,100747.00
2019-04-04T03:05:54.007Z,100746.55
2019-04-04T03:08:37.689Z,100749.09
2019-04-04T03:11:13.458Z,100751.38
2019-04-04T03:13:43.349Z,100750.98
2019-04-04T03:16:13.170Z,100748.09
2019-04-04T03:18:43.021Z,100748.89
2019-04-04T03:21:21.940Z,100749.02
2019-04-04T03:23:59.549Z,100751.64
2019-04-04T03:26:29.265Z,100750.81
2019-04-04T03:28:59.035Z,100753.41
2019-04-04T03:31:36.465Z,100750.42
2019-04-04T03:34:10.932Z,100756.98
2019-04-04T03:36:39.213Z,100757.60
2019-04-04T03:39:08.906Z,100756.02
2019-04-04T03:41:48.517Z,100758.44
2019-04-04T03:44:20.073Z,100755.06
2019-04-04T03:46:49.704Z,100760.32
2019-04-04T03:49:23.366Z,100755.95
2019-04-04T03:52:04.599Z,100760.09
2019-04-04T03:54:37.467Z,100757.09
2019-04-04T03:57:18.099Z,100755.81
2019-04-04T03:59:55.625Z,100755.45
2019-04-04T04:02:25.371Z,100755.37
2019-04-04T04:05:00.329Z,100748.42
2019-04-04T04:07:27.056Z,100749.60
2019-04-04T04:09:59.721Z,100749.22
2019-04-04T04:12:27.998Z,100745.98
2019-04-04T04:14:57.656Z,100742.25
2019-04-04T04:17:27.276Z,100745.36
2019-04-04T04:19:56.956Z,100746.63
2019-04-04T04:22:27.600Z,100748.64
2019-04-04T04:25:02.050Z,100757.95
2019-04-04T04:27:28.944Z,100756.88
2019-04-04T04:30:00.167Z,100753.00
2019-04-04T04:32:29.955Z,100751.69
2019-04-04T04:35:00.158Z,100757.51
2019-04-04T04:37:29.935Z,100757.02
2019-04-04T04:40:00.035Z,100759.16
2019-04-04T04:42:29.665Z,100760.05
2019-04-04T04:44:59.334Z,100762.27
2019-04-04T04:47:30.626Z,100762.14
2019-04-04T04:50:00.254Z,100759.55
2019-04-04T04:52:30.107Z,100761.14
2019-04-04T04:54:59.723Z,100756.89
2019-04-04T04:57:30.371Z,100753.09
2019-04-04T05:00:00.861Z,100758.91
2019-04-04T05:02:30.525Z,100751.65
2019-04-04T05:05:00.154Z,100752.92
2019-04-04T05:07:29.915Z,100755.81
2019-04-04T05:09:59.547Z,100756.91
2019-04-04T05:12:29.165Z,100758.17
2019-04-04T05:14:59.246Z,100758.04
2019-04-04T05:17:30.676Z,100754.11
2019-04-04T05:20:00.300Z,100763.38
2019-04-04T05:22:30.156Z,100760.76
2019-04-04T05:25:08.041Z,100759.44
2019-04-04T05:27:31.106Z,100761.84
2019-04-04T05:30:01.259Z,100758.74
2019-04-04T05:32:30.924Z,100752.48
2019-04-04T05:35:01.329Z,100752.27
2019-04-04T05:37:31.801Z,100748.84
2019-04-04T05:40:01.440Z,100751.08
2019-04-04T05:42:33.018Z,100746.83
2019-04-04T05:45:02.717Z,100747.89
2019-04-04T05:47:33.311Z,100753.41
2019-04-04T05:50:03.130Z,100753.80
2019-04-04T05:52:33.184Z,100760.53
2019-04-04T05:55:02.875Z,100760.89
2019-04-04T05:57:32.505Z,100762.11
2019-04-04T06:00:02.214Z,100759.96
2019-04-04T06:02:31.814Z,100767.44
2019-04-04T06:05:03.143Z,100768.63
2019-04-04T06:07:34.248Z,100760.22
2019-04-04T06:10:06.971Z,100754.57
2019-04-04T06:12:37.640Z,100760.52
2019-04-04T06:15:08.680Z,100760.00
2019-04-04T06:17:39.109Z,100755.31
2019-04-04T06:20:09.896Z,100758.16
2019-04-04T06:22:39.674Z,100749.58
2019-04-04T06:25:09.419Z,100759.16
2019-04-04T06:27:40.975Z,100761.20
2019-04-04T06:30:11.255Z,100750.53
2019-04-04T06:32:42.416Z,100744.44
2019-04-04T06:35:13.336Z,100750.73
2019-04-04T06:37:45.987Z,100749.77
2019-04-04T06:40:15.806Z,100751.04
2019-04-04T06:42:45.782Z,100741.72
2019-04-04T06:45:16.182Z,100742.06
2019-04-04T06:47:46.386Z,100739.73
2019-04-04T06:50:16.184Z,100737.05
2019-04-04T06:52:45.989Z,100731.78
2019-04-04T06:55:15.767Z,100733.74
2019-04-04T06:57:47.936Z,100732.00
2019-04-04T07:00:17.812Z,100730.73
2019-04-04T07:02:47.552Z,100729.16
2019-04-04T07:05:17.161Z,100729.55
2019-04-04T07:07:46.886Z,100735.37
2019-04-04T07:10:16.516Z,100733.52
2019-04-04T07:12:48.854Z,100731.36
2019-04-04T07:15:17.656Z,100740.11
2019-04-04T07:17:47.288Z,100738.34
2019-04-04T07:20:19.775Z,100739.53
2019-04-04T07:22:55.612Z,100738.51
2019-04-04T07:25:24.280Z,100734.17
2019-04-04T07:27:53.903Z,100748.91
2019-04-04T07:30:27.987Z,100750.92
2019-04-04T07:32:56.522Z,100739.36
2019-04-04T07:35:26.154Z,100736.23
2019-04-04T07:37:57.540Z,100738.95
2019-04-04T07:40:27.379Z,100732.02
2019-04-04T07:42:59.796Z,100723.84
2019-04-04T07:45:29.971Z,100722.42
2019-04-04T07:47:59.586Z,100722.19
2019-04-04T07:50:32.243Z,100725.80
2019-04-04T07:53:03.910Z,100727.84
2019-04-04T07:55:33.402Z,100725.51
2019-04-04T07:58:03.108Z,100729.85
2019-04-04T08:00:32.777Z,100728.82
2019-04-04T08:03:02.421Z,100722.70
2019-04-04T08:05:40.960Z,100723.77
2019-04-04T08:08:10.613Z,100729.00
2019-04-04T08:10:40.266Z,100727.12
2019-04-04T08:13:35.838Z,100727.36
2019-04-04T08:16:05.549Z,100714.64
2019-04-04T08:18:35.203Z,100721.47
2019-04-04T08:21:05.825Z,100725.63
2019-04-04T08:23:35.588Z,100724.59
2019-04-04T08:26:05.307Z,100718.84
2019-04-04T08:28:35.062Z,100719.52
2019-04-04T08:31:05.412Z,100716.44
2019-04-04T08:33:36.233Z,100712.23
2019-04-04T08:36:06.692Z,100710.75
2019-04-04T08:38:36.545Z,100711.05
2019-04-04T08:41:06.176Z,100718.61
2019-04-04T08:43:36.953Z,100710.44
2019-04-04T08:46:06.591Z,100710.28
2019-04-04T08:48:36.224Z,100706.79
2019-04-04T08:51:05.972Z,100708.80
2019-04-04T08:53:40.277Z,100702.38
2019-04-04T08:56:06.951Z,100708.58
2019-04-04T08:58:36.632Z,100705.05
2019-04-04T09:01:06.253Z,100713.28
2019-04-04T09:03:37.364Z,100707.43
2019-04-04T09:06:07.091Z,100708.45
2019-04-04T09:08:36.731Z,100703.06
2019-04-04T09:11:06.367Z,100697.72
2019-04-04T09:13:36.035Z,100700.10
2019-04-04T09:16:06.042Z,100695.23
2019-04-04T09:18:35.710Z,100700.25
2019-04-04T09:21:05.512Z,100693.63
2019-04-04T09:23:37.930Z,100696.39
2019-04-04T09:26:07.573Z,100694.95
2019-04-04T09:28:37.323Z,100701.47
2019-04-04T09:31:07.029Z,100696.23
2019-04-04T09:33:36.657Z,100699.83
2019-04-04T09:36:06.337Z,100695.46
2019-04-04T09:38:36.754Z,100693.19
2019-04-04T09:41:06.959Z,100695.06
2019-04-04T09:43:36.617Z,100692.62
2019-04-04T09:46:06.252Z,100687.67
2019-04-04T09:48:36.162Z,100684.50
2019-04-04T09:51:05.683Z,100692.53
2019-04-04T09:53:35.321Z,100683.81
2019-04-04T09:56:05.231Z,100692.50
2019-04-04T09:58:34.959Z,100683.41
2019-04-04T10:01:06.551Z,100687.61
2019-04-04T10:03:36.148Z,100670.94
2019-04-04T10:06:05.855Z,100684.51
2019-04-04T10:08:38.588Z,100677.52
2019-04-04T10:11:07.092Z,100686.46
2019-04-04T10:13:36.757Z,100677.19
2019-04-04T10:16:06.457Z,100686.14
2019-04-04T10:18:36.084Z,100682.72
2019-04-04T10:21:11.665Z,100675.09
2019-04-04T10:23:37.088Z,100676.91
2019-04-04T10:26:06.788Z,100681.55
2019-04-04T10:28:36.482Z,100675.00
2019-04-04T10:31:06.109Z,100674.49
2019-04-04T10:33:35.743Z,100670.30
2019-04-04T10:36:05.554Z,100680.25
2019-04-04T10:38:36.856Z,100679.70
2019-04-04T10:41:06.549Z,100683.61
2019-04-04T10:43:36.313Z,100684.72
2019-04-04T10:46:05.954Z,100674.27
2019-04-04T10:48:35.580Z,100673.72
2019-04-04T10:51:05.255Z,100667.33
2019-04-04T10:53:34.891Z,100673.00
2019-04-04T10:56:04.591Z,100678.74
2019-04-04T10:58:34.270Z,100669.73
2019-04-04T11:01:03.968Z,100668.53
2019-04-04T11:03:33.598Z,100673.56
2019-04-04T11:06:03.309Z,100667.70
2019-04-04T11:08:32.956Z,100665.53
2019-04-04T11:11:02.963Z,100667.44
2019-04-04T11:13:34.054Z,100664.96
2019-04-04T11:16:03.876Z,100658.38
2019-04-04T11:18:33.510Z,100657.29
2019-04-04T11:21:03.216Z,100656.64
2019-04-04T11:23:32.858Z,100663.92
2019-04-04T11:26:02.483Z,100652.08
2019-04-04T11:28:32.152Z,100644.66
2019-04-04T11:31:01.791Z,100646.63
2019-04-04T11:33:31.443Z,100652.80
2019-04-04T11:36:01.112Z,100645.73
2019-04-04T11:38:30.745Z,100657.84
2019-04-04T11:41:00.380Z,100652.41
2019-04-04T11:43:30.072Z,100651.63
2019-04-04T11:45:59.723Z,100656.76
2019-04-04T11:48:29.681Z,100650.15
2019-04-04T11:50:59.356Z,100650.60
2019-04-04T11:53:28.991Z,100656.91
2019-04-04T11:55:58.622Z,100655.89
2019-04-04T11:58:28.295Z,100650.63
2019-04-04T12:00:59.677Z,100652.52
2019-04-04T12:03:29.947Z,100642.44
2019-04-04T12:05:59.663Z,100649.83
2019-04-04T12:08:29.364Z,100643.69
2019-04-04T12:10:59.674Z,100640.48
2019-04-04T12:13:29.353Z,100634.55
2019-04-04T12:16:00.027Z,100633.11
2019-04-04T12:18:29.664Z,100627.36
2019-04-04T12:20:59.363Z,100628.56
2019-04-04T12:23:29.036Z,100624.95
2019-04-04T12:25:58.625Z,100622.95
2019-04-04T12:28:28.290Z,100615.81
2019-04-04T12:30:59.545Z,100621.84
2019-04-04T12:33:29.181Z,100614.77
2019-04-04T12:35:58.872Z,100622.41
2019-04-04T12:38:28.534Z,100617.93
2019-04-04T12:40:58.136Z,100626.41
2019-04-04T12:43:27.825Z,100618.26
2019-04-04T12:45:57.443Z,100615.12
2019-04-04T12:48:27.075Z,100615.95
2019-04-04T12:50:56.815Z,100616.61
2019-04-04T12:53:26.506Z,100609.41
2019-04-04T12:55:56.142Z,100613.80
2019-04-04T12:58:25.837Z,100613.65
2019-04-04T13:00:55.762Z,100610.57
2019-04-04T13:03:25.430Z,100610.13
2019-04-04T13:05:55.127Z,100610.33
2019-04-04T13:08:24.812Z,100607.22
2019-04-04T13:10:54.491Z,100606.87
2019-04-04T13:13:24.117Z,100598.72
2019-04-04T13:15:54.026Z,100609.59
2019-04-04T13:18:23.707Z,100606.03
2019-04-04T13:20:53.378Z,100605.53
2019-04-04T13:23:23.919Z,100604.53
2019-04-04T13:25:53.548Z,100599.13
2019-04-04T13:28:23.224Z,100603.00
2019-04-04T13:30:52.847Z,100610.25
2019-04-04T13:33:22.724Z,100592.79
2019-04-04T13:35:52.436Z,100600.45
2019-04-04T13:38:22.063Z,100595.88
2019-04-04T13:40:51.700Z,100605.69
2019-04-04T13:43:22.574Z,100601.03
2019-04-04T13:45:53.477Z,100601.86
2019-04-04T13:48:23.112Z,100595.92
2019-04-04T13:50:52.890Z,100601.56
2019-04-04T13:53:25.211Z,100601.36
2019-04-04T13:55:54.446Z,100589.23
2019-04-04T13:58:24.268Z,100595.22
2019-04-04T14:00:53.904Z,100590.46
2019-04-04T14:03:23.538Z,100583.42
2019-04-04T14:05:53.268Z,100581.11
2019-04-04T14:08:22.961Z,100579.02
2019-04-04T14:10:57.958Z,100581.91
2019-04-04T14:13:26.209Z,100577.41
2019-04-04T14:15:55.350Z,100578.09
2019-04-04T14:18:38.981Z,100572.11
2019-04-04T14:21:03.658Z,100574.10
2019-04-04T14:23:34.746Z,100573.94
2019-04-04T14:26:04.677Z,100572.00
2019-04-04T14:28:37.458Z,100566.22
2019-04-04T14:31:07.198Z,100563.99
2019-04-04T14:33:36.871Z,100559.37
2019-04-04T14:36:06.511Z,100562.09
2019-04-04T14:38:36.139Z,100557.97
2019-04-04T14:41:11.452Z,100560.94
2019-04-04T14:43:37.159Z,100553.58
2019-04-04T14:46:07.825Z,100550.84
2019-04-04T14:48:37.886Z,100546.23
2019-04-04T14:51:07.663Z,100546.23
2019-04-04T14:53:37.846Z,100547.02
2019-04-04T14:56:07.536Z,100548.91
2019-04-04T14:58:37.165Z,100536.05
2019-04-04T15:01:06.874Z,100536.96
2019-04-04T15:03:36.535Z,100529.32
2019-04-04T15:06:06.168Z,100530.70
2019-04-04T15:08:35.977Z,100536.39
2019-04-04T15:11:05.679Z,100532.82
2019-04-04T15:13:35.464Z,100533.81
2019-04-04T15:16:15.321Z,100542.27
2019-04-04T15:18:45.020Z,100534.80
2019-04-04T15:21:15.280Z,100544.08
2019-04-04T15:23:44.954Z,100542.82
2019-04-04T15:26:14.579Z,100545.02
2019-04-04T15:28:44.220Z,100546.80
2019-04-04T15:31:13.917Z,100544.34
2019-04-04T15:33:43.552Z,100546.14
2019-04-04T15:36:19.961Z,100547.72
2019-04-04T15:38:49.668Z,100541.74
2019-04-04T15:41:19.292Z,100540.53
2019-04-04T15:43:52.063Z,100539.61
2019-04-04T15:46:21.799Z,100538.27
2019-04-04T15:48:51.424Z,100546.89
2019-04-04T15:51:21.138Z,100554.94
2019-04-04T15:53:50.873Z,100552.59
2019-04-04T15:56:20.505Z,100552.75
2019-04-04T15:58:50.154Z,100550.27
2019-04-04T16:01:19.863Z,100549.28
2019-04-04T16:03:49.681Z,100549.79
2019-04-04T16:06:19.378Z,100556.98
2019-04-04T16:08:49.086Z,100554.16
2019-04-04T16:11:18.873Z,100560.30
2019-04-04T16:13:48.508Z,100561.73
2019-04-04T16:16:18.250Z,100563.72
2019-04-04T16:18:52.677Z,100566.74
2019-04-04T16:21:26.478Z,100560.86
2019-04-04T16:23:56.161Z,100573.42
2019-04-04T16:26:25.789Z,100570.58
2019-04-04T16:28:55.504Z,100572.27
2019-04-04T16:31:28.314Z,100574.54
2019-04-04T16:34:10.634Z,100582.54
2019-04-04T16:36:43.029Z,100581.51
2019-04-04T16:39:12.661Z,100581.44
2019-04-04T16:41:42.414Z,100577.25
2019-04-04T16:44:12.257Z,100588.45
2019-04-04T16:46:41.901Z,100586.59
2019-04-04T16:49:11.609Z,100587.08
2019-04-04T16:51:41.306Z,100596.80
2019-04-04T16:54:10.907Z,100591.89
2019-04-04T16:56:40.549Z,100593.55
2019-04-04T16:59:10.197Z,100594.84
2019-04-04T17:01:39.871Z,100597.99
2019-04-04T17:04:17.002Z,100602.66
2019-04-04T17:06:54.586Z,100603.83
2019-04-04T17:09:23.964Z,100611.05
2019-04-04T17:11:55.247Z,100609.18
2019-04-04T17:14:50.886Z,100614.25
2019-04-04T17:17:27.213Z,100611.66
2019-04-04T17:19:57.700Z,100619.48
2019-04-04T17:22:25.638Z,100622.84
2019-04-04T17:24:58.896Z,100619.68
2019-04-04T17:27:30.228Z,100623.84
2019-04-04T17:30:00.653Z,100632.67
2019-04-04T17:32:30.659Z,100636.34
2019-04-04T17:35:00.331Z,100639.70
2019-04-04T17:37:30.756Z,100640.23
2019-04-04T17:40:00.548Z,100641.23
2019-04-04T17:42:32.844Z,100640.23
2019-04-04T17:45:02.623Z,100644.73
2019-04-04T17:47:32.947Z,100642.91
2019-04-04T17:50:02.858Z,100645.90
2019-04-04T17:52:35.541Z,100658.20
2019-04-04T17:55:30.344Z,100653.41
2019-04-04T17:58:00.106Z,100665.69
2019-04-04T18:00:31.405Z,100665.88
2019-04-04T18:03:02.578Z,100673.24
2019-04-04T18:05:32.488Z,100670.73
2019-04-04T18:08:03.135Z,100679.75
2019-04-04T18:17:28.487Z,100674.39
2019-04-04T18:27:11.895Z,100686.23
2019-04-04T18:29:47.739Z,100693.29
2019-04-04T18:32:21.775Z,100693.78
2019-04-04T18:34:53.266Z,100695.09
2019-04-04T18:37:23.032Z,100696.86
2019-04-04T18:40:01.542Z,100694.05
2019-04-04T18:42:39.034Z,100699.84
2019-04-04T18:45:08.925Z,100708.55
2019-04-04T18:47:38.575Z,100714.59
2019-04-04T18:50:08.797Z,100716.26
2019-04-04T18:52:38.616Z,100716.64
2019-04-04T18:55:19.062Z,100716.47
2019-04-04T18:57:39.823Z,100719.22
2019-04-04T19:00:14.137Z,100722.78
2019-04-04T19:02:43.961Z,100718.39
2019-04-04T19:05:14.035Z,100722.50
2019-04-04T19:07:43.671Z,100725.44
2019-04-04T19:10:14.280Z,100728.00
2019-04-04T19:12:46.938Z,100730.55
2019-04-04T19:15:17.120Z,100733.03
2019-04-04T19:17:49.545Z,100736.94
2019-04-04T19:20:19.199Z,100733.84
2019-04-04T19:22:48.846Z,100737.48
2019-04-04T19:25:18.558Z,100738.13
2019-04-04T19:27:48.275Z,100739.66
2019-04-04T19:30:19.095Z,100745.05
2019-04-04T19:32:50.372Z,100748.05
2019-04-04T19:35:20.144Z,100744.12
2019-04-04T19:37:59.420Z,100745.95
2019-04-04T19:40:21.186Z,100755.07
2019-04-04T19:42:50.927Z,100752.36
2019-04-04T19:45:21.424Z,100761.66
2019-04-04T19:47:51.262Z,100760.63
2019-04-04T19:50:20.972Z,100753.26
2019-04-04T19:52:50.662Z,100760.16
2019-04-04T19:55:21.416Z,100764.38
2019-04-04T19:57:51.117Z,100766.20
2019-04-04T20:00:21.071Z,100767.17
2019-04-04T20:02:50.717Z,100767.47
2019-04-04T20:05:20.463Z,100772.47
2019-04-04T20:07:50.284Z,100773.41
2019-04-04T20:10:20.150Z,100772.28
2019-04-04T20:12:49.879Z,100772.00
2019-04-04T20:15:21.934Z,100769.25
2019-04-04T20:17:51.564Z,100775.28
2019-04-04T20:20:21.274Z,100771.91
2019-04-04T20:22:50.913Z,100771.98
2019-04-04T20:25:20.565Z,100772.42
2019-04-04T20:27:55.054Z,100783.01
2019-04-04T20:30:24.618Z,100786.45
2019-04-04T20:32:54.308Z,100787.56
2019-04-04T20:35:26.774Z,100787.26
2019-04-04T20:37:55.722Z,100785.50
2019-04-04T20:40:27.433Z,100790.33
2019-04-04T20:42:57.099Z,100793.25
2019-04-04T20:45:26.749Z,100791.98
2019-04-04T20:47:56.378Z,100795.95
2019-04-04T20:50:26.077Z,100799.95
2019-04-04T20:52:57.217Z,100800.12
2019-04-04T20:55:26.925Z,100794.73
2019-04-04T20:57:56.666Z,100799.56
2019-04-04T21:00:26.297Z,100802.18
2019-04-04T21:02:55.934Z,100802.80
2019-04-04T21:05:25.614Z,100804.52
2019-04-04T21:07:55.776Z,100808.90
2019-04-04T21:10:25.392Z,100813.34
2019-04-04T21:12:55.099Z,100811.30
2019-04-04T21:15:24.772Z,100813.85
2019-04-04T21:17:54.541Z,100819.05
2019-04-04T21:20:24.352Z,100823.66
2019-04-04T21:22:54.006Z,100817.69
2019-04-04T21:25:23.638Z,100820.63
2019-04-04T21:27:53.324Z,100823.34
2019-04-04T21:30:22.959Z,100821.69
2019-04-04T21:32:52.611Z,100818.34
2019-04-04T21:35:22.351Z,100821.41
2019-04-04T21:37:53.508Z,100821.95
2019-04-04T21:40:23.146Z,100817.75
2019-04-04T21:42:52.867Z,100820.91
2019-04-04T21:45:22.492Z,100822.06
2019-04-04T21:47:52.130Z,100827.67
2019-04-04T21:50:21.894Z,100825.88
2019-04-04T21:52:51.528Z,100828.49
2019-04-04T21:55:21.155Z,100827.22
2019-04-04T21:57:53.604Z,100822.73
2019-04-04T22:00:23.693Z,100827.70
2019-04-04T22:02:53.401Z,100833.47
2019-04-04T22:05:23.586Z,100832.36
2019-04-04T22:07:53.204Z,100828.82
2019-04-04T22:10:22.840Z,100824.33
2019-04-04T22:12:52.655Z,100828.66
2019-04-04T22:15:22.439Z,100824.55
2019-04-04T22:17:52.213Z,100830.19
2019-04-04T22:20:22.104Z,100834.23
2019-04-04T22:22:53.321Z,100831.10
2019-04-04T22:25:23.096Z,100828.84
2019-04-04T22:27:52.944Z,100830.80
2019-04-04T22:30:22.728Z,100826.31
2019-04-04T22:32:52.449Z,100825.25
2019-04-04T22:35:23.163Z,100822.63
2019-04-04T22:37:53.116Z,100826.22
2019-04-04T22:40:22.897Z,100823.00
2019-04-04T22:42:55.449Z,100826.73
2019-04-04T22:45:25.222Z,100820.52
2019-04-04T22:47:55.059Z,100824.94
2019-04-04T22:50:24.815Z,100825.08
2019-04-04T22:52:54.617Z,100821.80
2019-04-04T22:55:26.604Z,100824.05
2019-04-04T22:57:55.779Z,100820.36
2019-04-04T23:00:25.497Z,100820.06
2019-04-04T23:02:55.819Z,100824.32
2019-04-04T23:05:25.563Z,100821.62
2019-04-04T23:07:55.741Z,100817.88
2019-04-04T23:10:27.245Z,100826.03
2019-04-04T23:12:57.109Z,100815.09
2019-04-04T23:15:26.959Z,100817.78
2019-04-04T23:17:56.725Z,100822.57
2019-04-04T23:20:26.530Z,100824.38
2019-04-04T23:22:56.291Z,100819.44
2019-04-04T23:25:26.057Z,100816.66
2019-04-04T23:27:55.961Z,100814.84
2019-04-04T23:30:25.789Z,100815.88
2019-04-04T23:32:55.927Z,100821.99
2019-04-04T23:35:28.220Z,100821.75
2019-04-04T23:37:58.909Z,100820.63
2019-04-04T23:40:28.616Z,100818.22
2019-04-04T23:42:58.689Z,100819.34
2019-04-04T23:45:28.390Z,100816.46
2019-04-04T23:47:59.130Z,100820.03
2019-04-04T23:50:29.461Z,100821.44
2019-04-04T23:53:01.128Z,100826.22
2019-04-04T23:55:30.927Z,100823.09
2019-04-04T23:58:01.276Z,100819.81
